Time;durP1;ratioP1;P1;durP2;ratioP2;P2;SDS_P1;SDS_P2;PMS_P1;PMS_P2;Temp;Humidity;BMP_temperature;BMP_pressure;BME280_temperature;BME280_humidity;BME280_pressure;Samples;Min_cycle;Max_cycle;Signal;HPM_P1;HPM_P2
2021/12/23 06:35:59;;;;;;;65.28;29.85;;;;;;;-6.12;98.80;101370.66;6604088;26;151779;-90
2021/12/23 06:39:04;;;;;;;67.65;30.80;;;;;;;-6.13;98.58;101377.53;6601133;26;33806;-89
2021/12/23 06:42:08;;;;;;;59.35;28.73;;;;;;;-6.06;97.50;101373.47;6609108;27;33832;-90
2021/12/23 06:56:50;;;;;;;66.22;29.02;;;;;;;-5.87;95.96;101377.53;6602776;26;20066;-91
2021/12/23 07:07:28;;;;;;;65.10;27.55;;;;;;;-5.69;94.52;101385.00;6610148;27;20067;-90
2021/12/23 07:10:32;;;;;;;64.60;30.40;;;;;;;-5.63;94.39;101376.56;6609916;26;33722;-90
2021/12/23 07:17:16;;;;;;;59.60;27.55;;;;;;;-5.50;92.75;101367.53;6610034;27;20057;-91
2021/12/23 07:20:21;;;;;;;49.90;26.87;;;;;;;-5.47;92.46;101364.16;6613080;26;34267;-91
2021/12/23 07:23:24;;;;;;;61.20;30.12;;;;;;;-5.34;92.01;101365.44;6611530;27;34244;-91
2021/12/23 07:26:30;;;;;;;60.03;28.62;;;;;;;-5.32;91.76;101361.19;6603071;26;34623;-91
2021/12/23 07:29:33;;;;;;;60.70;28.90;;;;;;;-5.23;91.37;101364.03;6602593;26;33644;-91
2021/12/23 07:32:36;;;;;;;62.55;29.33;;;;;;;-5.21;91.30;101370.16;6609119;26;35066;-91
2021/12/23 07:35:40;;;;;;;61.65;28.87;;;;;;;-5.19;91.51;101357.28;6609058;27;33799;-91
2021/12/23 07:38:43;;;;;;;69.28;30.40;;;;;;;-5.03;90.82;101361.22;6609554;26;34005;-91
2021/12/23 07:41:45;;;;;;;58.47;29.17;;;;;;;-5.01;90.12;101368.19;6611202;27;33582;-90
2021/12/23 07:45:08;;;;;;;65.65;31.58;;;;;;;-5.10;90.15;101373.06;6612785;27;33916;-91
2021/12/23 07:48:11;;;;;;;65.12;30.10;;;;;;;-4.88;89.41;101361.66;6609476;26;33835;-91
2021/12/23 07:51:14;;;;;;;67.53;31.20;;;;;;;-4.85;89.54;101353.09;6604051;26;33682;-91
2021/12/23 07:54:17;;;;;;;62.45;29.60;;;;;;;-4.74;88.80;101346.53;6609166;27;33764;-91
2021/12/23 07:57:21;;;;;;;66.87;31.62;;;;;;;-4.57;88.37;101337.50;6610028;27;35415;-94
2021/12/23 08:00:28;;;;;;;63.85;30.95;;;;;;;-4.46;88.01;101334.34;6613789;27;35538;-93
2021/12/23 08:03:32;;;;;;;64.43;31.30;;;;;;;-4.37;87.76;101328.53;6612150;27;34467;-92
2021/12/23 08:06:34;;;;;;;65.70;30.67;;;;;;;-4.30;87.10;101326.13;6611416;27;34071;-92
2021/12/23 08:09:37;;;;;;;66.87;32.53;;;;;;;-4.16;87.73;101323.91;6616063;27;33567;-90
2021/12/23 08:12:40;;;;;;;66.57;30.92;;;;;;;-4.24;87.17;101322.00;6620812;26;33981;-91
2021/12/23 08:15:44;;;;;;;61.67;30.00;;;;;;;-4.10;86.89;101321.47;6612182;26;34647;-90
2021/12/23 08:18:47;;;;;;;64.43;29.85;;;;;;;-3.97;86.90;101310.56;6564223;27;34268;-91
2021/12/23 08:21:50;;;;;;;55.60;27.00;;;;;;;-3.87;86.58;101319.47;6565173;27;34467;-92
2021/12/23 08:28:28;;;;;;;54.85;26.00;;;;;;;-3.66;84.90;101311.34;6582718;27;34546;-91
2021/12/23 08:31:30;;;;;;;53.70;25.00;;;;;;;-3.66;84.45;101307.87;6582096;27;33468;-91
2021/12/23 08:34:35;;;;;;;49.53;24.15;;;;;;;-3.42;82.04;101311.91;6581683;27;34291;-91
2021/12/23 08:37:40;;;;;;;50.70;24.27;;;;;;;-3.45;82.17;101302.31;6585793;27;34575;-90
2021/12/23 08:44:28;;;;;;;53.83;26.17;;;;;;;-3.32;82.50;101303.47;6595549;26;20079;-89
2021/12/23 08:47:31;;;;;;;49.92;25.25;;;;;;;-2.98;82.00;101305.91;6609242;27;34546;-89
2021/12/23 08:50:37;;;;;;;48.65;24.40;;;;;;;-3.17;80.78;101300.31;6609246;27;34063;-89
2021/12/23 08:53:41;;;;;;;54.38;26.12;;;;;;;-3.20;79.27;101305.47;6608980;26;34187;-90
2021/12/23 08:56:43;;;;;;;48.50;22.55;;;;;;;-3.42;81.24;101307.56;6608483;26;34015;-89
2021/12/23 08:59:46;;;;;;;54.20;24.02;;;;;;;-3.12;80.08;101305.66;6608504;27;34024;-89
2021/12/23 09:02:49;;;;;;;57.30;27.42;;;;;;;-2.90;78.94;101314.75;6608937;27;34829;-90
2021/12/23 09:13:25;;;;;;;55.50;28.70;;;;;;;-3.12;81.91;101313.44;6613975;27;20621;-90
2021/12/23 09:16:27;;;;;;;42.40;19.20;;;;;;;-2.94;81.84;101289.56;6609015;27;34927;-90
2021/12/23 09:19:30;;;;;;;41.53;19.05;;;;;;;-2.59;74.20;101272.94;6618354;27;34701;-90
2021/12/23 09:22:34;;;;;;;35.83;18.25;;;;;;;-2.17;73.63;101263.28;6617665;26;33847;-90
2021/12/23 09:25:37;;;;;;;34.28;16.27;;;;;;;-1.68;69.01;101264.94;6614851;26;33929;-90
2021/12/23 09:35:05;;;;;;;;;;;;;;;-1.34;62.70;101246.31;6609048;27;33805;-90
2021/12/23 09:38:09;;;;;;;29.92;15.90;;;;;;;-1.06;60.73;101238.88;6608560;27;34213;-89
2021/12/23 09:41:15;;;;;;;30.58;13.95;;;;;;;0.23;59.17;101233.16;6609790;27;34092;-90
2021/12/23 09:44:18;;;;;;;23.27;12.40;;;;;;;1.33;54.53;101226.69;6609885;27;33812;-90
2021/12/23 09:47:21;;;;;;;30.33;13.70;;;;;;;1.36;51.41;101216.25;6610073;26;33874;-90
2021/12/23 09:50:27;;;;;;;24.70;12.50;;;;;;;1.93;49.20;101219.78;6617160;27;34624;-90
2021/12/23 09:53:33;;;;;;;25.42;13.43;;;;;;;1.18;50.68;101217.06;6610588;26;34521;-90
2021/12/23 09:56:36;;;;;;;28.10;14.25;;;;;;;0.87;50.99;101214.34;6613129;26;33897;-89
2021/12/23 09:59:43;;;;;;;24.70;12.82;;;;;;;0.98;52.78;101209.16;6613433;26;34438;-89
2021/12/23 10:02:46;;;;;;;22.92;12.75;;;;;;;1.47;50.62;101206.66;6611525;26;34163;-89
2021/12/23 10:05:56;;;;;;;21.33;11.50;;;;;;;1.88;48.50;101204.09;6616697;26;35256;-89
2021/12/23 10:27:27;;;;;;;21.23;11.35;;;;;;;0.01;53.40;101176.47;6650030;26;34715;-91
2021/12/23 10:37:36;;;;;;;24.75;12.52;;;;;;;0.03;54.41;101151.25;6645972;26;35241;-91
2021/12/23 10:44:05;;;;;;;21.95;11.43;;;;;;;0.14;54.69;101136.53;6586513;26;34475;-91
2021/12/23 10:47:44;;;;;;;20.20;10.77;;;;;;;0.39;52.82;101126.22;6589059;26;33945;-90
2021/12/23 10:51:03;;;;;;;23.40;12.27;;;;;;;0.07;53.33;101119.09;6589497;27;34535;-91
2021/12/23 10:54:20;;;;;;;24.37;11.18;;;;;;;0.02;53.04;101112.97;6590517;27;33621;-90
2021/12/23 11:01:01;;;;;;;21.30;11.10;;;;;;;-0.04;53.76;101096.44;6589020;27;33661;-91
2021/12/23 11:04:07;;;;;;;22.10;10.88;;;;;;;0.05;53.25;101087.78;6590615;27;33569;-88
2021/12/23 11:54:47;;;;;;;17.77;9.85;;;;;;;-0.30;54.01;100986.78;6611719;27;35483;-88
2021/12/23 11:57:52;;;;;;;20.10;9.68;;;;;;;-0.36;54.02;100979.78;6627309;26;34163;-89
2021/12/23 12:23:01;;;;;;;12.35;7.07;;;;;;;-0.24;53.93;100942.47;6607889;26;20071;-90
2021/12/23 12:26:09;;;;;;;12.93;6.68;;;;;;;-0.20;53.23;100935.53;6608696;27;34019;-91
2021/12/23 12:29:13;;;;;;;13.32;7.20;;;;;;;-0.36;53.29;100939.81;6603297;26;33995;-91
2021/12/23 12:32:35;;;;;;;12.55;7.03;;;;;;;-0.40;54.11;100925.91;6608771;27;33386;-89
2021/12/23 12:35:40;;;;;;;17.75;7.85;;;;;;;-0.31;53.70;100918.09;6608799;27;34778;-89
2021/12/23 12:38:48;;;;;;;13.20;7.53;;;;;;;-0.32;52.94;100913.75;6608969;27;34803;-88
